Time;durP1;ratioP1;P1;durP2;ratioP2;P2;SDS_P1;SDS_P2;PMS_P1;PMS_P2;Temp;Humidity;BMP_temperature;BMP_pressure;BME280_temperature;BME280_humidity;BME280_pressure;Samples;Min_cycle;Max_cycle;Signal;HPM_P1;HPM_P2
2022/11/28 00:01:07;;;;;;;27.92;12.77;;;8.00;99.90;;;;;;5071861;28;20359;-71
2022/11/28 00:03:32;;;;;;;29.80;12.00;;;8.00;99.90;;;;;;5056496;28;20055;-71
2022/11/28 00:06:06;;;;;;;47.67;12.90;;;8.00;99.90;;;;;;5070876;28;20436;-71
2022/11/28 00:08:32;;;;;;;26.27;12.48;;;8.00;99.90;;;;;;5072933;28;20032;-71
2022/11/28 00:11:01;;;;;;;23.23;11.07;;;8.00;99.90;;;;;;5076409;28;20113;-70
2022/11/28 00:13:27;;;;;;;25.13;11.70;;;8.00;99.90;;;;;;5076902;28;20024;-71
2022/11/28 00:15:58;;;;;;;27.77;12.93;;;8.00;99.90;;;;;;5075946;28;20031;-69
2022/11/28 00:18:24;;;;;;;22.05;9.77;;;8.00;99.90;;;;;;5070472;28;20103;-70
2022/11/28 00:20:51;;;;;;;25.92;11.52;;;8.00;99.90;;;;;;5065192;28;20112;-70
2022/11/28 00:23:17;;;;;;;19.95;9.82;;;8.00;99.90;;;;;;5076377;28;20025;-71
2022/11/28 00:25:42;;;;;;;23.85;11.43;;;8.00;99.90;;;;;;5076003;28;20032;-72
2022/11/28 00:28:10;;;;;;;24.05;12.02;;;8.00;99.90;;;;;;5059631;28;20410;-72
2022/11/28 00:30:37;;;;;;;24.55;11.48;;;8.10;99.90;;;;;;5075246;28;20032;-71
2022/11/28 00:33:03;;;;;;;25.15;11.93;;;8.10;99.90;;;;;;5075289;28;21161;-71
2022/11/28 00:35:29;;;;;;;24.23;10.50;;;8.10;99.90;;;;;;5071410;28;20033;-69
2022/11/28 00:37:55;;;;;;;26.30;12.55;;;8.10;99.90;;;;;;5059889;28;20456;-70
2022/11/28 00:40:21;;;;;;;23.45;10.82;;;8.10;99.90;;;;;;5075404;28;20020;-70
2022/11/28 00:42:47;;;;;;;26.38;12.30;;;8.10;99.90;;;;;;5074365;28;20028;-70
2022/11/28 00:45:12;;;;;;;28.85;13.48;;;8.10;99.90;;;;;;5063095;28;20043;-70
2022/11/28 00:47:38;;;;;;;28.10;11.93;;;8.10;99.90;;;;;;5069552;28;20353;-70
2022/11/28 00:50:04;;;;;;;26.92;11.05;;;8.10;99.90;;;;;;5075849;28;20066;-70
2022/11/28 00:52:32;;;;;;;23.90;11.57;;;8.10;99.90;;;;;;5075185;28;20029;-70
2022/11/28 00:54:58;;;;;;;24.90;10.82;;;8.10;99.90;;;;;;5072647;28;20032;-72
2022/11/28 00:57:24;;;;;;;27.85;12.27;;;8.10;99.90;;;;;;5069675;28;20463;-71
2022/11/28 00:59:49;;;;;;;28.27;13.07;;;8.10;99.90;;;;;;5073909;28;20123;-70
2022/11/28 01:02:15;;;;;;;31.95;13.15;;;8.10;99.90;;;;;;5075430;28;20063;-70
2022/11/28 01:04:40;;;;;;;24.98;10.82;;;8.10;99.90;;;;;;5075322;28;20020;-70
2022/11/28 01:07:06;;;;;;;27.77;13.35;;;8.10;99.90;;;;;;5075583;28;20035;-70
2022/11/28 01:09:33;;;;;;;29.40;13.50;;;8.10;99.90;;;;;;5061761;28;20048;-70
2022/11/28 01:11:58;;;;;;;28.30;11.93;;;8.10;99.90;;;;;;5059553;28;20083;-69
2022/11/28 01:14:25;;;;;;;27.45;12.50;;;8.10;99.90;;;;;;5074931;28;20395;-69
2022/11/28 01:16:52;;;;;;;27.52;12.63;;;8.10;99.90;;;;;;5063762;28;20048;-70
2022/11/28 01:19:20;;;;;;;29.67;13.77;;;8.10;99.90;;;;;;5074162;28;20024;-70
2022/11/28 01:21:46;;;;;;;30.35;14.20;;;8.10;99.90;;;;;;5075149;28;20028;-70
2022/11/28 01:24:12;;;;;;;28.08;12.73;;;8.10;99.90;;;;;;5075082;28;20027;-70
2022/11/28 01:26:39;;;;;;;31.67;13.45;;;8.20;99.90;;;;;;5067255;28;20484;-72
2022/11/28 01:29:05;;;;;;;30.77;13.07;;;8.20;99.90;;;;;;5071203;28;20067;-69
2022/11/28 01:31:30;;;;;;;47.22;14.88;;;8.20;99.90;;;;;;5075162;28;20024;-70
2022/11/28 01:33:57;;;;;;;71.78;16.80;;;8.20;99.90;;;;;;5070571;28;20090;-70
2022/11/28 01:36:22;;;;;;;33.78;14.80;;;8.20;99.90;;;;;;5069383;28;20456;-70
2022/11/28 01:38:49;;;;;;;33.58;15.10;;;8.30;99.90;;;;;;5068026;28;20071;-70
2022/11/28 01:41:18;;;;;;;33.90;14.30;;;8.20;99.90;;;;;;5071947;28;20055;-70
2022/11/28 01:43:59;;;;;;;36.13;15.93;;;8.20;99.90;;;;;;5071149;28;20437;-69
2022/11/28 01:46:25;;;;;;;31.23;13.27;;;8.30;99.90;;;;;;5071353;28;20506;-70
2022/11/28 01:48:52;;;;;;;41.28;15.45;;;8.30;99.90;;;;;;5062089;28;20059;-70
2022/11/28 01:51:18;;;;;;;35.25;16.13;;;8.30;99.90;;;;;;5074488;28;20020;-70
2022/11/28 01:53:46;;;;;;;37.47;15.68;;;8.30;99.90;;;;;;5074042;28;20467;-70
2022/11/28 01:56:19;;;;;;;34.28;14.13;;;8.40;99.90;;;;;;5072714;28;20029;-70
2022/11/28 01:58:49;;;;;;;32.92;15.35;;;8.40;99.90;;;;;;5073486;28;20025;-70
2022/11/28 02:01:15;;;;;;;33.58;13.95;;;8.40;99.90;;;;;;5068637;28;20403;-69
2022/11/28 02:03:47;;;;;;;36.30;15.80;;;8.30;99.90;;;;;;5073089;28;20036;-70
2022/11/28 02:06:17;;;;;;;37.08;16.70;;;8.30;99.90;;;;;;5056712;28;20023;-70
2022/11/28 02:08:43;;;;;;;35.65;15.65;;;8.40;99.90;;;;;;5072103;28;20021;-71
2022/11/28 02:11:24;;;;;;;44.03;16.33;;;8.40;99.90;;;;;;5072344;28;20020;-70
2022/11/28 02:14:07;;;;;;;38.53;16.00;;;8.40;99.90;;;;;;5056434;28;20064;-70
2022/11/28 02:16:35;;;;;;;35.10;16.30;;;8.40;99.90;;;;;;5072211;28;20460;-70
2022/11/28 02:19:35;;;;;;;36.10;15.43;;;8.40;99.90;;;;;;5071949;28;20032;-70
2022/11/28 02:22:38;;;;;;;35.00;15.35;;;8.40;99.90;;;;;;5073218;28;20042;-70
2022/11/28 02:25:17;;;;;;;36.40;15.73;;;8.40;99.90;;;;;;5070170;28;20036;-70
2022/11/28 02:27:51;;;;;;;33.80;15.38;;;8.40;99.90;;;;;;5066606;28;20043;-70
2022/11/28 02:30:20;;;;;;;31.02;12.57;;;8.40;99.90;;;;;;5072825;28;20028;-70
2022/11/28 02:32:52;;;;;;;34.40;15.05;;;8.40;99.90;;;;;;5071956;28;20017;-70
2022/11/28 02:35:27;;;;;;;40.13;16.75;;;8.40;99.90;;;;;;5071599;28;20500;-71
2022/11/28 02:37:58;;;;;;;38.13;15.70;;;8.50;99.90;;;;;;5072872;28;20029;-70
2022/11/28 02:40:29;;;;;;;34.47;15.40;;;8.50;99.90;;;;;;5070508;28;20032;-71
2022/11/28 02:43:02;;;;;;;36.30;15.38;;;8.50;99.90;;;;;;5071807;28;20046;-70
2022/11/28 02:45:56;;;;;;;33.47;14.85;;;8.50;99.90;;;;;;5070881;28;20095;-69
2022/11/28 02:48:31;;;;;;;42.25;14.70;;;8.60;99.90;;;;;;5069940;28;20031;-70
2022/11/28 02:51:24;;;;;;;43.10;16.75;;;8.60;99.90;;;;;;5072496;28;20028;-70
2022/11/28 02:53:52;;;;;;;39.92;16.65;;;8.60;99.90;;;;;;5069835;28;20020;-70
2022/11/28 02:56:18;;;;;;;39.60;16.73;;;8.60;99.90;;;;;;5072108;28;20051;-69
2022/11/28 02:58:43;;;;;;;44.80;19.45;;;8.70;99.90;;;;;;5072666;28;20032;-68
2022/11/28 03:01:24;;;;;;;39.78;15.88;;;8.70;99.90;;;;;;5072005;28;20012;-69
2022/11/28 03:03:49;;;;;;;43.28;17.30;;;8.70;99.90;;;;;;5070625;28;20090;-69
2022/11/28 03:06:31;;;;;;;38.63;15.80;;;8.70;99.90;;;;;;5072123;28;20064;-69
2022/11/28 03:09:05;;;;;;;45.63;18.25;;;8.70;99.90;;;;;;5069899;28;20032;-69
2022/11/28 03:11:46;;;;;;;46.22;18.42;;;8.80;99.90;;;;;;5072593;28;20023;-69
2022/11/28 03:14:42;;;;;;;42.35;18.77;;;8.80;99.90;;;;;;5073696;28;20024;-68
2022/11/28 03:17:20;;;;;;;45.28;17.75;;;8.90;99.90;;;;;;5073217;28;20029;-69
2022/11/28 03:20:09;;;;;;;46.72;18.80;;;8.90;99.90;;;;;;5072828;28;20092;-70
2022/11/28 03:22:57;;;;;;;34.85;15.00;;;8.90;99.90;;;;;;5053329;28;20017;-70
2022/11/28 03:25:29;;;;;;;41.78;16.50;;;8.90;99.90;;;;;;5052675;28;20040;-69
2022/11/28 03:28:01;;;;;;;;;;;9.00;99.90;;;;;;5054084;28;20029;-69
2022/11/28 03:30:49;;;;;;;43.15;17.55;;;9.00;99.90;;;;;;5052831;28;20470;-68
2022/11/28 03:33:16;;;;;;;42.67;16.50;;;8.90;99.90;;;;;;5052516;28;20041;-69
2022/11/28 03:35:47;;;;;;;46.85;18.08;;;9.00;99.90;;;;;;5071759;28;20021;-70
2022/11/28 03:38:20;;;;;;;40.47;17.55;;;9.00;99.90;;;;;;5073364;28;20017;-68
2022/11/28 03:40:49;;;;;;;36.78;15.63;;;9.10;99.90;;;;;;5071762;28;20519;-69
2022/11/28 03:43:20;;;;;;;36.13;13.52;;;9.10;99.90;;;;;;5073434;28;20032;-69
2022/11/28 03:45:50;;;;;;;43.40;16.88;;;9.10;99.90;;;;;;5077277;28;20021;-69
2022/11/28 03:48:22;;;;;;;40.42;16.10;;;9.10;99.90;;;;;;5077217;28;20139;-69
2022/11/28 03:50:57;;;;;;;41.72;17.48;;;9.20;99.90;;;;;;5077491;28;20066;-69
2022/11/28 03:53:33;;;;;;;37.83;15.60;;;9.20;99.90;;;;;;5076168;28;20016;-69
2022/11/28 03:56:20;;;;;;;41.45;16.77;;;9.20;99.90;;;;;;5073196;28;20025;-70
2022/11/28 03:58:55;;;;;;;37.90;15.20;;;9.20;99.90;;;;;;5076784;28;20054;-68
2022/11/28 04:01:28;;;;;;;38.47;15.18;;;9.30;99.90;;;;;;5076850;28;20440;-68
2022/11/28 04:03:58;;;;;;;40.78;17.52;;;9.30;99.90;;;;;;5076836;28;20031;-69
2022/11/28 04:07:08;;;;;;;40.83;15.43;;;9.30;99.90;;;;;;5060210;28;20085;-68
2022/11/28 04:09:40;;;;;;;43.22;16.63;;;9.30;99.90;;;;;;5065176;28;20037;-67
2022/11/28 04:12:13;;;;;;;40.35;16.17;;;9.30;99.90;;;;;;5072522;28;20025;-67
2022/11/28 04:14:56;;;;;;;36.35;14.88;;;9.30;99.90;;;;;;5075182;28;20479;-68
2022/11/28 04:17:34;;;;;;;32.88;13.07;;;9.40;99.90;;;;;;5076290;28;20074;-68
2022/11/28 04:20:29;;;;;;;30.23;12.82;;;9.40;99.90;;;;;;5072113;28;20085;-69
2022/11/28 04:22:59;;;;;;;33.95;14.60;;;9.40;99.90;;;;;;5061060;28;20042;-69
2022/11/28 04:25:28;;;;;;;40.13;15.18;;;9.50;99.90;;;;;;5067466;28;20160;-69
2022/11/28 04:28:00;;;;;;;40.70;17.33;;;9.50;99.90;;;;;;5057681;28;20046;-68
2022/11/28 04:30:26;;;;;;;47.08;16.52;;;9.50;99.90;;;;;;5058708;28;20028;-69
2022/11/28 04:32:59;;;;;;;43.88;16.98;;;9.60;99.90;;;;;;5068445;28;20029;-69
2022/11/28 04:35:36;;;;;;;43.55;16.77;;;9.60;99.90;;;;;;5074449;28;20024;-69
2022/11/28 04:38:05;;;;;;;36.80;15.75;;;9.70;99.90;;;;;;5072271;28;20024;-69
2022/11/28 04:40:36;;;;;;;41.05;16.48;;;9.70;99.90;;;;;;5073810;28;20085;-68
2022/11/28 04:43:08;;;;;;;41.55;16.10;;;9.70;99.90;;;;;;5074085;28;20348;-70
2022/11/28 04:45:38;;;;;;;42.55;16.30;;;9.80;99.90;;;;;;5073826;28;20217;-68
2022/11/28 04:48:05;;;;;;;39.10;17.17;;;9.80;99.90;;;;;;5068944;28;20040;-70
2022/11/28 04:50:51;;;;;;;39.90;15.73;;;9.80;99.90;;;;;;5074941;28;20020;-68
2022/11/28 04:53:27;;;;;;;39.08;15.88;;;9.80;99.90;;;;;;5066382;28;20108;-68
2022/11/28 04:56:00;;;;;;;41.10;16.48;;;9.80;99.90;;;;;;5071845;28;20028;-68
2022/11/28 04:58:37;;;;;;;35.17;15.13;;;9.90;99.90;;;;;;5073368;28;20023;-68
2022/11/28 05:01:09;;;;;;;36.83;14.52;;;9.90;99.90;;;;;;5071404;28;20479;-68
2022/11/28 05:03:34;;;;;;;37.08;14.15;;;9.90;99.90;;;;;;5074668;28;20032;-68
2022/11/28 05:06:02;;;;;;;40.28;15.23;;;9.90;99.90;;;;;;5075150;28;20023;-68
2022/11/28 05:08:27;;;;;;;38.25;15.38;;;9.90;99.90;;;;;;5073890;28;20033;-68
2022/11/28 05:10:53;;;;;;;37.00;15.85;;;9.90;99.90;;;;;;5074931;28;20519;-68
2022/11/28 05:13:18;;;;;;;36.47;15.30;;;9.90;99.90;;;;;;5075663;28;20021;-68
2022/11/28 05:15:44;;;;;;;35.47;13.68;;;10.00;99.90;;;;;;5072992;28;20104;-69
2022/11/28 05:18:10;;;;;;;37.25;14.90;;;10.00;99.90;;;;;;5073784;28;20016;-68
2022/11/28 05:20:37;;;;;;;39.13;15.43;;;10.00;99.90;;;;;;5073991;28;20016;-67
2022/11/28 05:23:02;;;;;;;37.47;14.98;;;10.10;99.90;;;;;;5073258;28;20059;-69
2022/11/28 05:25:28;;;;;;;35.17;14.52;;;10.10;99.90;;;;;;5073737;28;20052;-69
2022/11/28 05:27:54;;;;;;;33.42;13.45;;;10.10;99.90;;;;;;5072018;28;20028;-68
2022/11/28 05:30:19;;;;;;;38.78;16.23;;;10.10;99.90;;;;;;5066254;28;20037;-70
2022/11/28 05:32:45;;;;;;;40.33;16.20;;;10.00;99.90;;;;;;5073593;28;20020;-70
2022/11/28 05:35:10;;;;;;;36.25;15.00;;;10.00;99.90;;;;;;5070095;28;20037;-69
2022/11/28 05:37:37;;;;;;;36.83;15.57;;;10.10;99.90;;;;;;5068001;28;20024;-69
2022/11/28 05:40:03;;;;;;;34.50;13.75;;;10.10;99.90;;;;;;5071820;28;20021;-70
2022/11/28 05:42:34;;;;;;;48.20;21.23;;;10.10;99.90;;;;;;5074259;28;20415;-69
2022/11/28 05:45:00;;;;;;;45.75;19.92;;;10.10;99.90;;;;;;5071197;28;20449;-69
2022/11/28 05:47:28;;;;;;;44.08;19.77;;;10.20;99.90;;;;;;5073571;28;20027;-69
2022/11/28 05:49:54;;;;;;;41.63;15.88;;;10.20;99.90;;;;;;5074411;28;20033;-69
2022/11/28 05:52:19;;;;;;;41.58;16.23;;;10.20;99.90;;;;;;5064035;28;20025;-70
2022/11/28 05:54:45;;;;;;;45.60;17.38;;;10.20;99.90;;;;;;5071133;28;20021;-69
2022/11/28 05:57:10;;;;;;;45.63;17.83;;;10.20;99.90;;;;;;5059482;28;20028;-68
2022/11/28 05:59:36;;;;;;;39.53;16.67;;;10.20;99.90;;;;;;5072502;28;20024;-69
2022/11/28 06:02:02;;;;;;;43.30;16.42;;;10.20;99.90;;;;;;5070855;28;20029;-68
2022/11/28 06:04:28;;;;;;;41.90;16.45;;;10.20;99.90;;;;;;5068084;28;20103;-69
2022/11/28 06:06:54;;;;;;;47.60;18.95;;;10.20;99.90;;;;;;5072341;28;20025;-68
2022/11/28 06:09:19;;;;;;;47.65;18.42;;;10.20;99.90;;;;;;5071890;28;20576;-68
2022/11/28 06:11:45;;;;;;;37.05;15.30;;;10.20;99.90;;;;;;5067531;28;20017;-69
2022/11/28 06:14:11;;;;;;;45.05;17.13;;;10.20;99.90;;;;;;5062550;28;20020;-69
2022/11/28 06:16:36;;;;;;;47.92;18.10;;;10.20;99.90;;;;;;5073202;28;20104;-68
2022/11/28 06:19:04;;;;;;;47.85;17.27;;;10.20;99.90;;;;;;5056809;28;20092;-68
2022/11/28 06:21:30;;;;;;;46.28;18.17;;;10.20;99.90;;;;;;5069670;28;20405;-68
2022/11/28 06:23:58;;;;;;;282.85;44.17;;;10.20;99.90;;;;;;5061680;28;20024;-68
2022/11/28 06:26:25;;;;;;;194.15;32.33;;;10.20;99.90;;;;;;5074213;28;20023;-68
2022/11/28 06:28:51;;;;;;;48.80;19.08;;;10.20;99.90;;;;;;5074111;28;20031;-69
2022/11/28 06:31:19;;;;;;;50.88;20.90;;;10.20;99.90;;;;;;5057614;28;20013;-69
2022/11/28 06:33:45;;;;;;;49.60;21.58;;;10.20;99.90;;;;;;5067727;28;20041;-70
2022/11/28 06:36:12;;;;;;;53.05;22.13;;;10.20;99.90;;;;;;5064358;28;20017;-68
2022/11/28 06:38:38;;;;;;;47.65;17.73;;;10.20;99.90;;;;;;5074133;28;20024;-70
2022/11/28 06:41:07;;;;;;;54.05;20.48;;;10.20;99.90;;;;;;5073689;28;20043;-69
2022/11/28 06:43:33;;;;;;;51.10;20.10;;;10.20;99.90;;;;;;5069219;28;20047;-71
2022/11/28 06:45:58;;;;;;;55.80;21.15;;;10.20;99.90;;;;;;5062271;28;20484;-70
2022/11/28 06:48:25;;;;;;;50.60;18.83;;;10.20;99.90;;;;;;5062021;28;20116;-71
2022/11/28 06:50:51;;;;;;;57.10;19.40;;;10.20;99.90;;;;;;5061725;28;20031;-68
2022/11/28 06:53:17;;;;;;;57.08;20.83;;;10.20;99.90;;;;;;5072845;28;20066;-70
2022/11/28 06:55:42;;;;;;;47.15;17.60;;;10.20;99.90;;;;;;5067455;28;20017;-70
2022/11/28 06:58:08;;;;;;;50.08;19.92;;;10.20;99.90;;;;;;5063191;28;20033;-69
2022/11/28 07:00:34;;;;;;;49.25;19.25;;;10.30;99.90;;;;;;5060183;28;20052;-69
2022/11/28 07:03:00;;;;;;;60.22;22.08;;;10.20;99.90;;;;;;5069826;28;20020;-69
2022/11/28 07:05:29;;;;;;;60.00;22.83;;;10.30;99.90;;;;;;5057343;28;20016;-69
2022/11/28 07:07:59;;;;;;;61.47;20.30;;;10.30;99.90;;;;;;5065758;28;20120;-68
2022/11/28 07:10:26;;;;;;;58.70;21.52;;;10.30;99.90;;;;;;5065236;28;20445;-68
2022/11/28 07:12:53;;;;;;;61.08;22.60;;;10.30;99.90;;;;;;5063568;28;20052;-68
2022/11/28 07:15:19;;;;;;;61.38;22.08;;;10.30;99.90;;;;;;5056813;28;20048;-68
2022/11/28 07:17:45;;;;;;;57.88;21.73;;;10.30;99.90;;;;;;5073047;28;20055;-68
2022/11/28 07:20:11;;;;;;;56.78;20.50;;;10.30;99.90;;;;;;5063564;28;20104;-68
2022/11/28 07:22:36;;;;;;;63.83;19.83;;;10.30;99.90;;;;;;5067217;28;20026;-68
2022/11/28 07:25:02;;;;;;;58.25;20.52;;;10.30;99.90;;;;;;5073061;28;20024;-68
2022/11/28 07:27:28;;;;;;;68.43;21.27;;;10.20;99.90;;;;;;5072777;28;20451;-67
2022/11/28 07:29:53;;;;;;;67.95;20.63;;;10.20;99.90;;;;;;5073474;28;20035;-69
2022/11/28 07:32:19;;;;;;;63.30;21.98;;;10.20;99.90;;;;;;5072974;28;20013;-68
2022/11/28 07:34:44;;;;;;;68.60;22.58;;;10.20;99.90;;;;;;5073302;28;20388;-68
2022/11/28 07:37:10;;;;;;;82.88;24.05;;;10.20;99.90;;;;;;5073085;28;20020;-69
2022/11/28 07:39:36;;;;;;;65.88;22.58;;;10.20;99.90;;;;;;5072880;28;20090;-69
2022/11/28 07:42:01;;;;;;;66.75;22.52;;;10.20;99.90;;;;;;5072482;28;20513;-69
2022/11/28 07:44:27;;;;;;;55.38;19.15;;;10.20;99.90;;;;;;5073698;28;20020;-69
2022/11/28 07:46:52;;;;;;;72.47;22.85;;;10.20;99.90;;;;;;5072775;28;20033;-68
2022/11/28 07:49:18;;;;;;;72.15;23.20;;;10.20;99.90;;;;;;5072920;28;20464;-69
2022/11/28 07:51:43;;;;;;;72.40;24.33;;;10.20;99.90;;;;;;5072729;28;20448;-68
2022/11/28 07:54:09;;;;;;;82.30;23.75;;;10.20;99.90;;;;;;5073182;28;20023;-70
2022/11/28 07:56:36;;;;;;;76.88;23.13;;;10.20;99.90;;;;;;5071461;28;20012;-69
2022/11/28 07:59:03;;;;;;;94.38;23.38;;;10.30;99.90;;;;;;5072949;28;20024;-69
2022/11/28 08:01:31;;;;;;;72.72;23.30;;;10.30;99.90;;;;;;5072096;28;20085;-69
2022/11/28 08:03:58;;;;;;;101.88;26.30;;;10.30;99.90;;;;;;5071519;28;20017;-68
2022/11/28 08:06:26;;;;;;;97.63;25.45;;;10.40;99.90;;;;;;5066456;28;20107;-69
2022/11/28 08:08:53;;;;;;;72.68;22.77;;;10.40;99.90;;;;;;5069324;28;20566;-68
2022/11/28 08:11:21;;;;;;;93.38;25.92;;;10.30;99.90;;;;;;5072491;28;20024;-68
2022/11/28 08:13:47;;;;;;;75.78;23.05;;;10.40;99.90;;;;;;5072235;28;20016;-69
2022/11/28 08:16:15;;;;;;;85.95;26.02;;;10.40;99.90;;;;;;5068193;28;20039;-67
2022/11/28 08:18:41;;;;;;;89.15;24.40;;;10.50;99.90;;;;;;5068310;28;20013;-68
2022/11/28 08:21:16;;;;;;;86.43;25.05;;;10.50;99.90;;;;;;5072720;28;20034;-69
2022/11/28 08:23:44;;;;;;;87.38;24.13;;;10.60;99.90;;;;;;5069948;28;20056;-67
2022/11/28 08:26:12;;;;;;;88.47;25.73;;;10.60;99.90;;;;;;5070243;28;20020;-68
2022/11/28 08:28:38;;;;;;;93.57;25.23;;;10.50;99.90;;;;;;5070425;28;20031;-67
2022/11/28 08:31:32;;;;;;;95.90;24.85;;;10.60;99.90;;;;;;5074439;28;20025;-69
2022/11/28 08:34:00;;;;;;;72.88;19.02;;;10.60;99.90;;;;;;5074527;28;20055;-68
2022/11/28 08:36:26;;;;;;;87.15;23.15;;;10.60;99.90;;;;;;5075624;28;20064;-69
2022/11/28 08:38:51;;;;;;;98.45;25.67;;;10.70;99.90;;;;;;5075112;28;20486;-68
2022/11/28 08:41:19;;;;;;;90.10;23.98;;;10.70;99.90;;;;;;5056738;28;20040;-68
2022/11/28 08:43:46;;;;;;;97.65;26.63;;;10.80;99.90;;;;;;5058457;28;20028;-69
2022/11/28 08:46:14;;;;;;;80.18;20.77;;;10.80;99.90;;;;;;5058560;28;20024;-69
2022/11/28 08:48:41;;;;;;;56.78;18.15;;;10.80;99.90;;;;;;5057155;28;20524;-69
2022/11/28 08:51:09;;;;;;;85.50;23.42;;;10.80;99.90;;;;;;5059579;28;20071;-68
2022/11/28 08:53:34;;;;;;;88.18;22.75;;;10.80;99.90;;;;;;5056228;28;20044;-69
2022/11/28 08:56:00;;;;;;;80.32;23.33;;;10.90;99.90;;;;;;5059053;28;20457;-69
2022/11/28 08:58:26;;;;;;;76.28;23.23;;;10.90;99.90;;;;;;5055501;28;20024;-69
2022/11/28 09:00:51;;;;;;;84.22;23.85;;;10.90;99.90;;;;;;5073989;28;20031;-67
2022/11/28 09:03:18;;;;;;;80.60;23.60;;;10.90;99.90;;;;;;5075014;28;20363;-69
2022/11/28 09:05:45;;;;;;;73.38;23.25;;;11.00;99.90;;;;;;5075563;28;20028;-69
2022/11/28 09:08:12;;;;;;;81.07;23.75;;;11.00;99.90;;;;;;5075665;28;20020;-70
2022/11/28 09:10:38;;;;;;;82.07;24.23;;;11.10;99.90;;;;;;5075866;28;20063;-70
2022/11/28 09:13:05;;;;;;;72.60;23.23;;;11.10;99.90;;;;;;5075673;28;20417;-68
2022/11/28 09:15:31;;;;;;;69.97;21.85;;;11.20;99.90;;;;;;5075592;28;20081;-70
2022/11/28 09:17:57;;;;;;;69.35;22.00;;;11.30;99.90;;;;;;5075771;28;20024;-68
2022/11/28 09:20:23;;;;;;;65.03;19.15;;;11.30;99.90;;;;;;5075498;28;20020;-70
2022/11/28 09:22:48;;;;;;;65.35;22.27;;;11.30;99.90;;;;;;5075345;28;20028;-69
2022/11/28 09:25:14;;;;;;;62.05;20.15;;;11.30;99.90;;;;;;5075733;28;20090;-70
2022/11/28 09:27:40;;;;;;;67.50;22.45;;;11.40;99.90;;;;;;5075666;28;20494;-70
2022/11/28 09:30:06;;;;;;;63.90;21.55;;;11.40;99.90;;;;;;5074774;28;20051;-69
2022/11/28 09:32:33;;;;;;;67.18;22.58;;;11.50;99.90;;;;;;5055007;28;20078;-68
2022/11/28 09:34:58;;;;;;;62.75;21.95;;;11.50;99.90;;;;;;5061923;28;20123;-69
2022/11/28 09:37:25;;;;;;;67.85;22.20;;;11.50;99.90;;;;;;5074932;28;20258;-69
2022/11/28 09:39:51;;;;;;;55.83;19.02;;;11.50;99.90;;;;;;5075563;28;20149;-68
2022/11/28 09:42:23;;;;;;;65.10;21.10;;;11.50;99.90;;;;;;5075025;28;20107;-69
2022/11/28 09:45:00;;;;;;;68.57;20.10;;;11.40;99.90;;;;;;5073087;28;20178;-71
2022/11/28 09:47:28;;;;;;;70.05;22.55;;;11.40;99.90;;;;;;5073609;28;20111;-70
2022/11/28 09:50:15;;;;;;;58.00;18.05;;;11.30;99.90;;;;;;5075171;28;20441;-70
2022/11/28 09:52:47;;;;;;;55.90;19.02;;;11.20;99.90;;;;;;5063676;28;20025;-70
2022/11/28 09:55:38;;;;;;;61.40;19.70;;;11.20;99.90;;;;;;5054235;28;20331;-70
2022/11/28 09:58:17;;;;;;;64.63;20.63;;;11.10;99.90;;;;;;5065121;28;20108;-69
2022/11/28 10:00:56;;;;;;;62.75;21.75;;;11.10;99.90;;;;;;5074916;28;20035;-70
2022/11/28 10:03:31;;;;;;;74.75;23.27;;;11.20;99.90;;;;;;5074693;28;20036;-69
2022/11/28 10:06:11;;;;;;;71.43;21.83;;;11.20;99.90;;;;;;5075471;28;20020;-70
2022/11/28 10:08:50;;;;;;;73.70;22.85;;;11.30;99.90;;;;;;5073812;28;20353;-70
2022/11/28 10:11:25;;;;;;;79.55;23.38;;;11.30;99.90;;;;;;5074128;28;20405;-69
2022/11/28 10:14:12;;;;;;;82.75;25.15;;;11.30;99.90;;;;;;5074376;28;20029;-70
2022/11/28 10:16:44;;;;;;;81.70;24.70;;;11.30;99.90;;;;;;5073166;28;20094;-68
2022/11/28 10:19:16;;;;;;;86.35;23.00;;;11.40;99.90;;;;;;5073961;28;20099;-69
2022/11/28 10:21:52;;;;;;;81.88;22.85;;;11.50;99.90;;;;;;5074082;28;20021;-69
2022/11/28 10:24:36;;;;;;;77.82;23.25;;;11.50;99.90;;;;;;5073650;28;20077;-68
2022/11/28 10:27:04;;;;;;;79.53;23.48;;;11.60;99.90;;;;;;5074508;28;20029;-70
2022/11/28 10:30:10;;;;;;;72.00;21.55;;;11.60;99.90;;;;;;5073144;28;20044;-70
2022/11/28 10:32:40;;;;;;;73.95;22.80;;;11.60;99.90;;;;;;5054249;28;20424;-70
2022/11/28 10:35:21;;;;;;;80.68;25.08;;;11.70;99.90;;;;;;5056668;28;20044;-69
2022/11/28 10:37:47;;;;;;;78.00;22.98;;;11.70;99.90;;;;;;5073028;28;20073;-69
2022/11/28 10:40:33;;;;;;;71.22;21.75;;;11.80;99.90;;;;;;5073994;28;20025;-68
2022/11/28 10:43:05;;;;;;;67.97;21.42;;;11.90;99.90;;;;;;5072773;28;20123;-68
2022/11/28 10:45:52;;;;;;;63.00;19.30;;;12.00;99.90;;;;;;5074198;28;20026;-68
2022/11/28 10:48:24;;;;;;;59.70;20.55;;;12.00;99.90;;;;;;5073620;28;20461;-68
2022/11/28 10:50:56;;;;;;;72.50;22.58;;;12.10;99.90;;;;;;5067478;28;20048;-68
2022/11/28 10:53:48;;;;;;;67.50;19.67;;;12.10;99.90;;;;;;5058973;28;20154;-67
2022/11/28 10:56:16;;;;;;;59.07;21.17;;;12.20;99.90;;;;;;5073320;28;20360;-67
2022/11/28 10:58:57;;;;;;;62.67;18.27;;;12.50;99.90;;;;;;5073773;28;20036;-69
2022/11/28 11:01:26;;;;;;;56.15;18.73;;;12.60;99.90;;;;;;5073707;28;20055;-70
2022/11/28 11:03:52;;;;;;;56.88;20.08;;;12.60;99.90;;;;;;5073447;28;20029;-68
2022/11/28 11:06:18;;;;;;;53.95;19.50;;;12.70;99.90;;;;;;5073406;28;20035;-70
2022/11/28 11:08:46;;;;;;;61.25;21.25;;;12.80;99.90;;;;;;5072549;28;20113;-69
2022/11/28 11:11:28;;;;;;;55.60;19.38;;;12.90;99.90;;;;;;5073310;28;20456;-68
2022/11/28 11:14:08;;;;;;;52.53;18.80;;;13.00;99.90;;;;;;5073217;28;20180;-68
2022/11/28 11:16:49;;;;;;;51.78;18.02;;;13.10;99.90;;;;;;5073661;28;20052;-69
2022/11/28 11:19:35;;;;;;;53.28;19.65;;;13.10;99.90;;;;;;5073586;28;20024;-70
2022/11/28 11:22:10;;;;;;;49.70;17.20;;;13.10;99.90;;;;;;5072909;28;20509;-70
2022/11/28 11:24:35;;;;;;;51.03;18.95;;;13.00;99.90;;;;;;5073559;28;20012;-69
2022/11/28 11:27:20;;;;;;;51.58;18.35;;;13.00;99.90;;;;;;5073147;28;20020;-70
2022/11/28 11:29:46;;;;;;;49.17;17.92;;;13.00;99.90;;;;;;5073211;28;20180;-68
2022/11/28 11:32:28;;;;;;;48.08;17.10;;;13.00;99.90;;;;;;5072629;28;20057;-69
2022/11/28 11:34:58;;;;;;;45.35;15.70;;;13.10;99.90;;;;;;5070121;28;20434;-68
2022/11/28 11:37:33;;;;;;;47.40;17.08;;;13.30;99.90;;;;;;5070185;28;20412;-70
2022/11/28 11:40:00;;;;;;;44.00;17.25;;;13.50;99.90;;;;;;5067277;28;20024;-69
2022/11/28 11:42:28;;;;;;;36.92;13.27;;;13.70;99.90;;;;;;5073264;28;20058;-69
2022/11/28 11:44:54;;;;;;;37.80;14.45;;;13.90;99.90;;;;;;5072580;28;20027;-70
2022/11/28 11:47:40;;;;;;;39.22;15.68;;;14.00;99.90;;;;;;5073206;28;20009;-68
2022/11/28 11:50:14;;;;;;;35.80;14.70;;;14.20;99.90;;;;;;5070667;28;20040;-68
2022/11/28 11:52:39;;;;;;;45.03;16.65;;;14.30;99.90;;;;;;5069729;28;20025;-69
2022/11/28 11:55:14;;;;;;;35.70;14.85;;;14.20;99.90;;;;;;5072851;28;20334;-69
2022/11/28 11:57:46;;;;;;;39.78;16.00;;;14.10;99.90;;;;;;5085939;28;20449;-70
2022/11/28 12:00:20;;;;;;;37.22;15.18;;;14.00;99.90;;;;;;5069432;28;20029;-70
2022/11/28 12:02:52;;;;;;;37.17;14.38;;;13.90;99.90;;;;;;5069593;28;20142;-70
2022/11/28 12:05:33;;;;;;;39.03;15.43;;;13.80;99.90;;;;;;5072192;28;20019;-69
2022/11/28 12:08:01;;;;;;;36.55;12.95;;;13.60;99.90;;;;;;5075858;28;20039;-68
2022/11/28 12:10:39;;;;;;;40.40;14.70;;;13.50;99.90;;;;;;5075636;28;20021;-69
2022/11/28 12:13:05;;;;;;;37.83;12.82;;;13.30;99.90;;;;;;5076132;28;20514;-70
2022/11/28 12:15:54;;;;;;;37.65;13.88;;;13.20;99.90;;;;;;5076209;28;20056;-69
2022/11/28 12:18:32;;;;;;;48.33;14.85;;;13.20;99.90;;;;;;5057373;28;20029;-69
2022/11/28 12:21:05;;;;;;;38.17;14.02;;;13.20;99.90;;;;;;5056874;28;20171;-70
2022/11/28 12:23:46;;;;;;;35.22;12.82;;;13.20;99.90;;;;;;5070380;28;20024;-68
2022/11/28 12:26:15;;;;;;;35.90;12.80;;;13.20;99.90;;;;;;5077012;28;20479;-67
2022/11/28 12:28:40;;;;;;;37.08;12.63;;;13.20;99.90;;;;;;5076491;28;20032;-68
2022/11/28 12:31:21;;;;;;;36.50;11.88;;;13.20;99.90;;;;;;5076263;28;20066;-69
2022/11/28 12:34:05;;;;;;;32.40;11.52;;;13.20;99.90;;;;;;5076197;28;20053;-69
2022/11/28 12:36:56;;;;;;;35.63;10.98;;;13.10;99.90;;;;;;5075828;28;20364;-69
2022/11/28 12:39:43;;;;;;;34.47;12.38;;;13.10;99.90;;;;;;5075773;28;20077;-69
2022/11/28 12:42:33;;;;;;;38.58;11.43;;;13.10;99.90;;;;;;5073924;28;20095;-69
2022/11/28 12:45:13;;;;;;;31.77;11.35;;;13.20;99.90;;;;;;5074869;28;20024;-69
2022/11/28 12:48:16;;;;;;;26.95;9.65;;;13.20;99.90;;;;;;5074595;28;20078;-69
2022/11/28 12:51:06;;;;;;;29.50;9.65;;;13.20;99.90;;;;;;5074314;28;20039;-69